createdAt,value
2019-03-31T00:01:58.241Z,5.38
2019-03-31T00:04:29.590Z,5.45
2019-03-31T00:07:00.941Z,5.50
2019-03-31T00:09:32.436Z,5.35
2019-03-31T00:12:03.779Z,5.46
2019-03-31T00:14:35.136Z,5.39
2019-03-31T00:17:06.462Z,5.46
2019-03-31T00:19:37.784Z,5.44
2019-03-31T00:22:09.148Z,5.30
2019-03-31T00:24:40.357Z,5.10
2019-03-31T00:27:11.716Z,5.34
2019-03-31T00:29:43.044Z,5.32
2019-03-31T00:32:14.311Z,5.31
2019-03-31T00:34:45.510Z,5.36
2019-03-31T00:37:16.864Z,5.12
2019-03-31T00:39:48.197Z,5.23
2019-03-31T00:42:19.594Z,5.15
2019-03-31T00:44:51.011Z,5.26
2019-03-31T00:47:22.382Z,5.18
2019-03-31T00:49:53.736Z,5.37
2019-03-31T00:52:25.095Z,5.37
2019-03-31T00:54:56.515Z,5.33
2019-03-31T00:57:27.894Z,5.11
2019-03-31T00:59:59.290Z,5.36
2019-03-31T01:02:32.175Z,5.18
2019-03-31T01:05:04.396Z,5.23
2019-03-31T01:07:35.754Z,5.09
2019-03-31T01:10:07.144Z,5.21
2019-03-31T01:12:40.108Z,5.31
2019-03-31T01:15:14.010Z,5.14
2019-03-31T01:17:45.369Z,5.05
2019-03-31T01:20:16.750Z,4.88
2019-03-31T01:22:48.086Z,4.82
2019-03-31T01:25:19.752Z,4.79
2019-03-31T01:27:51.020Z,4.91
2019-03-31T01:30:22.933Z,4.80
2019-03-31T01:32:54.380Z,4.83
2019-03-31T01:35:25.460Z,4.84
2019-03-31T01:37:56.803Z,4.84
2019-03-31T01:40:28.063Z,4.83
2019-03-31T01:42:59.422Z,4.89
2019-03-31T01:45:30.765Z,4.92
2019-03-31T01:48:02.125Z,4.96
2019-03-31T01:50:33.446Z,4.75
2019-03-31T01:53:04.795Z,4.75
2019-03-31T01:55:36.168Z,4.94
2019-03-31T01:58:07.625Z,4.79
2019-03-31T02:00:43.549Z,4.92
2019-03-31T02:03:14.956Z,4.71
2019-03-31T02:05:46.346Z,4.69
2019-03-31T02:08:17.738Z,4.64
2019-03-31T02:10:49.022Z,4.22
2019-03-31T02:13:20.393Z,4.53
2019-03-31T02:15:52.033Z,4.77
2019-03-31T02:18:23.393Z,4.68
2019-03-31T02:20:54.800Z,4.51
2019-03-31T02:23:26.065Z,4.52
2019-03-31T02:25:57.406Z,4.66
2019-03-31T02:28:28.772Z,4.71
2019-03-31T02:31:00.176Z,4.35
2019-03-31T02:33:31.539Z,4.43
2019-03-31T02:36:02.937Z,4.29
2019-03-31T02:38:34.227Z,4.29
2019-03-31T02:41:05.564Z,4.38
2019-03-31T02:43:37.143Z,4.21
2019-03-31T02:46:08.488Z,4.20
2019-03-31T02:48:39.773Z,4.36
2019-03-31T02:51:11.243Z,4.21
2019-03-31T02:53:42.582Z,4.27
2019-03-31T02:56:13.791Z,4.42
2019-03-31T02:58:45.286Z,4.29
2019-03-31T03:01:16.967Z,4.13
2019-03-31T03:03:48.246Z,4.24
2019-03-31T03:06:21.153Z,4.30
2019-03-31T03:08:52.427Z,4.06
2019-03-31T03:11:23.801Z,4.13
2019-03-31T03:13:55.156Z,4.21
2019-03-31T03:16:26.510Z,4.33
2019-03-31T03:18:57.882Z,4.33
2019-03-31T03:21:29.154Z,4.36
2019-03-31T03:24:00.482Z,4.33
2019-03-31T03:26:31.903Z,4.46
2019-03-31T03:29:03.240Z,4.49
2019-03-31T03:31:34.621Z,4.46
2019-03-31T03:34:05.994Z,4.32
2019-03-31T03:36:37.287Z,4.32
2019-03-31T03:39:08.774Z,4.39
2019-03-31T03:41:40.159Z,4.78
2019-03-31T03:44:11.551Z,4.61
2019-03-31T03:46:42.923Z,4.52
2019-03-31T03:49:14.526Z,4.46
2019-03-31T03:51:45.938Z,4.49
2019-03-31T03:54:17.224Z,4.41
2019-03-31T03:56:48.612Z,4.45
2019-03-31T03:59:21.802Z,4.64
2019-03-31T04:01:52.438Z,4.74
2019-03-31T04:04:23.541Z,4.82
2019-03-31T04:06:54.871Z,4.81
2019-03-31T04:09:26.223Z,5.15
2019-03-31T04:11:57.615Z,5.15
2019-03-31T04:14:29.101Z,5.34
2019-03-31T04:17:00.464Z,5.42
2019-03-31T04:19:31.806Z,5.40
2019-03-31T04:22:03.188Z,5.72
2019-03-31T04:24:34.535Z,5.85
2019-03-31T04:27:05.835Z,5.97
2019-03-31T04:29:38.333Z,6.35
2019-03-31T04:32:09.682Z,6.72
2019-03-31T04:34:41.021Z,7.09
2019-03-31T04:37:12.404Z,7.27
2019-03-31T04:39:43.728Z,7.63
2019-03-31T04:42:15.057Z,7.93
2019-03-31T04:44:46.538Z,8.00
2019-03-31T04:47:17.867Z,8.25
2019-03-31T04:49:49.220Z,8.73
2019-03-31T04:52:20.531Z,9.11
2019-03-31T04:54:51.874Z,9.60
2019-03-31T04:57:23.254Z,10.03
2019-03-31T04:59:54.643Z,10.16
2019-03-31T05:02:27.365Z,10.64
2019-03-31T05:04:58.853Z,10.28
2019-03-31T05:07:30.192Z,10.89
2019-03-31T05:10:01.528Z,10.86
2019-03-31T05:12:32.802Z,11.15
2019-03-31T05:15:04.260Z,11.42
2019-03-31T05:17:36.066Z,11.12
2019-03-31T05:20:07.462Z,11.52
2019-03-31T05:22:38.868Z,11.81
2019-03-31T05:25:10.066Z,11.74
2019-03-31T05:27:41.384Z,12.16
2019-03-31T05:30:12.742Z,12.45
2019-03-31T05:32:44.115Z,12.28
2019-03-31T05:35:15.497Z,12.46
2019-03-31T05:37:51.149Z,11.95
2019-03-31T05:40:19.961Z,12.18
2019-03-31T05:42:51.330Z,12.37
2019-03-31T05:45:22.653Z,12.03
2019-03-31T05:47:54.005Z,12.78
2019-03-31T05:50:25.394Z,13.02
2019-03-31T05:52:56.741Z,12.53
2019-03-31T05:55:28.109Z,13.28
2019-03-31T05:57:59.540Z,13.72
2019-03-31T06:00:34.353Z,13.72
2019-03-31T06:03:05.695Z,13.08
2019-03-31T06:05:37.052Z,13.16
2019-03-31T06:08:09.706Z,13.31
2019-03-31T06:10:41.073Z,13.60
2019-03-31T06:13:13.423Z,13.59
2019-03-31T06:15:44.790Z,13.71
2019-03-31T06:18:16.150Z,12.99
2019-03-31T06:20:47.507Z,13.50
2019-03-31T06:23:18.863Z,13.30
2019-03-31T06:25:50.252Z,13.44
2019-03-31T06:28:21.569Z,13.47
2019-03-31T06:30:52.951Z,13.72
2019-03-31T06:33:24.552Z,14.10
2019-03-31T06:35:55.941Z,14.29
2019-03-31T06:38:27.272Z,14.28
2019-03-31T06:40:58.915Z,14.48
2019-03-31T06:43:30.363Z,14.18
2019-03-31T06:46:02.962Z,14.36
2019-03-31T06:48:34.519Z,14.24
2019-03-31T06:51:05.899Z,14.23
2019-03-31T06:53:37.451Z,14.49
2019-03-31T06:56:08.884Z,14.76
2019-03-31T06:58:40.355Z,15.07
2019-03-31T07:01:11.905Z,15.42
2019-03-31T07:03:43.476Z,14.90
2019-03-31T07:06:14.890Z,14.31
2019-03-31T07:08:46.806Z,14.48
2019-03-31T07:11:17.521Z,14.87
2019-03-31T07:13:48.751Z,14.87
2019-03-31T07:16:20.098Z,14.83
2019-03-31T07:18:51.428Z,14.83
2019-03-31T07:21:23.070Z,14.85
2019-03-31T07:23:54.330Z,15.22
2019-03-31T07:26:26.665Z,15.56
2019-03-31T07:28:58.154Z,15.44
2019-03-31T07:31:29.543Z,15.33
2019-03-31T07:34:00.968Z,15.28
2019-03-31T07:36:32.299Z,15.48
2019-03-31T07:39:05.379Z,15.45
2019-03-31T07:41:36.819Z,15.39
2019-03-31T07:44:08.146Z,15.38
2019-03-31T07:46:39.761Z,15.83
2019-03-31T07:49:11.102Z,16.24
2019-03-31T07:51:43.967Z,15.50
2019-03-31T07:54:15.368Z,15.90
2019-03-31T07:56:46.882Z,15.82
2019-03-31T07:59:18.375Z,16.21
2019-03-31T08:01:49.760Z,16.30
2019-03-31T08:04:21.128Z,16.42
2019-03-31T08:06:52.415Z,16.66
2019-03-31T08:09:23.862Z,16.65
2019-03-31T08:11:55.216Z,16.46
2019-03-31T08:14:26.693Z,15.90
2019-03-31T08:16:58.025Z,16.71
2019-03-31T08:19:29.432Z,16.43
2019-03-31T08:22:00.770Z,16.53
2019-03-31T08:24:35.225Z,16.22
2019-03-31T08:27:08.871Z,16.33
2019-03-31T08:29:40.785Z,16.70
2019-03-31T08:32:12.696Z,16.58
2019-03-31T08:34:43.334Z,16.64
2019-03-31T08:37:14.546Z,16.48
2019-03-31T08:39:45.902Z,16.98
2019-03-31T08:42:17.361Z,17.32
2019-03-31T08:44:48.682Z,17.11
2019-03-31T08:47:20.213Z,17.34
2019-03-31T08:49:51.689Z,17.25
2019-03-31T08:52:23.132Z,17.34
2019-03-31T08:54:54.486Z,17.59
2019-03-31T08:57:25.844Z,17.39
2019-03-31T08:59:57.181Z,17.72
2019-03-31T09:02:33.152Z,17.49
2019-03-31T09:05:06.538Z,17.63
2019-03-31T09:07:41.596Z,17.13
2019-03-31T09:10:11.122Z,17.35
2019-03-31T09:12:42.488Z,17.96
2019-03-31T09:15:13.712Z,17.76
2019-03-31T09:17:45.050Z,17.60
2019-03-31T09:20:18.031Z,17.86
2019-03-31T09:22:49.358Z,17.66
2019-03-31T09:25:20.705Z,17.60
2019-03-31T09:27:52.085Z,17.86
2019-03-31T09:30:23.542Z,18.18
2019-03-31T09:32:54.886Z,18.21
2019-03-31T09:35:26.223Z,17.80
2019-03-31T09:37:57.574Z,18.41
2019-03-31T09:40:29.984Z,18.39
2019-03-31T09:43:01.469Z,18.58
2019-03-31T09:45:33.121Z,18.03
2019-03-31T09:48:04.555Z,18.34
2019-03-31T09:50:35.927Z,18.00
2019-03-31T09:53:07.283Z,18.18
2019-03-31T09:55:38.632Z,18.84
2019-03-31T09:58:09.987Z,18.80
2019-03-31T10:00:50.268Z,18.71
2019-03-31T10:03:22.609Z,18.90
2019-03-31T10:05:53.929Z,18.67
2019-03-31T10:08:25.349Z,18.24
2019-03-31T10:10:56.683Z,18.54
2019-03-31T10:13:28.024Z,18.51
2019-03-31T10:15:59.395Z,17.80
2019-03-31T10:18:30.757Z,18.26
2019-03-31T10:21:02.102Z,18.72
2019-03-31T10:23:33.464Z,19.12
2019-03-31T10:26:04.841Z,18.53
2019-03-31T10:28:36.217Z,18.89
2019-03-31T10:31:07.576Z,18.78
2019-03-31T10:33:38.944Z,19.17
2019-03-31T10:36:12.873Z,18.72
2019-03-31T10:38:43.370Z,18.69
2019-03-31T10:41:15.825Z,18.97
2019-03-31T10:43:46.965Z,18.95
2019-03-31T10:46:18.048Z,19.27
2019-03-31T10:48:49.344Z,19.21
2019-03-31T10:51:20.737Z,19.38
2019-03-31T10:53:52.215Z,19.04
2019-03-31T10:56:23.633Z,19.10
2019-03-31T10:58:54.987Z,19.46
2019-03-31T11:01:26.394Z,19.64
2019-03-31T11:03:57.769Z,19.70
2019-03-31T11:06:29.135Z,19.50
2019-03-31T11:09:00.409Z,19.62
2019-03-31T11:11:31.755Z,19.80
2019-03-31T11:14:04.078Z,19.69
2019-03-31T11:16:36.768Z,19.86
2019-03-31T11:19:08.215Z,19.55
2019-03-31T11:21:41.289Z,19.99
2019-03-31T11:24:12.637Z,20.20
2019-03-31T11:26:43.994Z,20.05
2019-03-31T11:29:16.296Z,19.93
2019-03-31T11:31:47.780Z,19.82
2019-03-31T11:34:19.852Z,19.80
2019-03-31T11:36:51.344Z,20.07
2019-03-31T11:39:22.678Z,19.83
2019-03-31T11:41:54.091Z,20.20
2019-03-31T11:44:27.695Z,20.31
2019-03-31T11:46:58.507Z,20.48
2019-03-31T11:49:29.859Z,20.55
2019-03-31T11:52:01.240Z,20.49
2019-03-31T11:54:32.660Z,20.26
2019-03-31T11:57:04.005Z,20.42
2019-03-31T11:59:35.389Z,20.90
2019-03-31T12:02:06.764Z,20.79
2019-03-31T12:04:39.165Z,20.23
2019-03-31T12:07:10.544Z,20.67
2019-03-31T12:09:42.000Z,20.91
2019-03-31T12:12:13.652Z,20.91
2019-03-31T12:14:59.604Z,20.44
2019-03-31T12:17:18.081Z,20.90
2019-03-31T12:19:49.470Z,21.02
2019-03-31T12:22:20.852Z,20.94
2019-03-31T12:24:52.693Z,20.98
2019-03-31T12:27:24.096Z,20.79
2019-03-31T12:29:55.496Z,20.82
2019-03-31T12:32:26.819Z,20.75
2019-03-31T12:34:58.182Z,20.95
2019-03-31T12:37:41.802Z,20.90
2019-03-31T12:40:02.712Z,20.77
2019-03-31T12:42:34.084Z,20.23
2019-03-31T12:45:06.371Z,20.64
2019-03-31T12:47:37.846Z,20.97
2019-03-31T12:50:09.323Z,20.57
2019-03-31T12:52:46.563Z,20.53
2019-03-31T12:55:13.731Z,20.35
2019-03-31T12:57:45.119Z,20.60
2019-03-31T13:00:16.464Z,20.54
2019-03-31T13:02:47.774Z,20.42
2019-03-31T13:05:19.140Z,20.49
2019-03-31T13:07:56.441Z,20.25
2019-03-31T13:10:23.573Z,20.46
2019-03-31T13:12:55.623Z,20.36
2019-03-31T13:15:27.890Z,20.30
2019-03-31T13:17:59.276Z,20.43
2019-03-31T13:20:30.737Z,20.53
2019-03-31T13:23:02.118Z,20.45
2019-03-31T13:25:34.562Z,20.56
2019-03-31T13:28:06.076Z,20.42
2019-03-31T13:30:37.546Z,20.24
2019-03-31T13:33:08.923Z,20.12
2019-03-31T13:35:40.311Z,20.10
2019-03-31T13:38:11.861Z,20.06
2019-03-31T13:40:43.269Z,20.24
2019-03-31T13:43:14.552Z,20.19
2019-03-31T13:45:45.987Z,20.21
2019-03-31T13:48:17.373Z,20.07
2019-03-31T13:50:48.738Z,19.36
2019-03-31T13:53:20.117Z,19.62
2019-03-31T13:55:51.597Z,19.61
2019-03-31T13:58:23.845Z,19.62
2019-03-31T14:00:57.133Z,19.58
2019-03-31T14:03:28.737Z,19.73
2019-03-31T14:06:00.078Z,19.79
2019-03-31T14:08:32.118Z,19.32
2019-03-31T14:11:03.502Z,19.46
2019-03-31T14:13:34.844Z,19.38
2019-03-31T14:16:07.001Z,19.40
2019-03-31T14:18:38.397Z,19.17
2019-03-31T14:21:09.703Z,19.10
2019-03-31T14:23:43.756Z,19.07
2019-03-31T14:26:14.192Z,19.22
2019-03-31T14:28:45.549Z,19.27
2019-03-31T14:31:16.794Z,19.16
2019-03-31T14:33:48.161Z,19.03
2019-03-31T14:36:19.522Z,19.01
2019-03-31T14:38:50.883Z,18.96
2019-03-31T14:41:22.322Z,18.92
2019-03-31T14:43:53.717Z,19.03
2019-03-31T14:46:25.056Z,18.73
2019-03-31T14:48:56.315Z,18.67
2019-03-31T14:51:27.620Z,18.65
2019-03-31T14:53:58.978Z,18.63
2019-03-31T14:56:30.329Z,18.65
2019-03-31T14:59:01.725Z,18.60
2019-03-31T15:01:33.124Z,18.38
2019-03-31T15:04:04.478Z,18.20
2019-03-31T15:06:35.824Z,18.22
2019-03-31T15:09:08.803Z,18.11
2019-03-31T15:11:39.476Z,18.12
2019-03-31T15:14:10.599Z,17.91
2019-03-31T15:16:41.968Z,17.91
2019-03-31T15:19:13.295Z,17.67
2019-03-31T15:21:44.657Z,17.67
2019-03-31T15:24:15.978Z,17.63
2019-03-31T15:26:47.333Z,17.46
2019-03-31T15:29:18.705Z,17.34
2019-03-31T15:31:50.075Z,17.39
2019-03-31T15:34:21.423Z,17.32
2019-03-31T15:36:52.780Z,17.23
2019-03-31T15:39:25.175Z,17.03
2019-03-31T15:41:56.505Z,16.89
2019-03-31T15:44:27.874Z,16.83
2019-03-31T15:46:59.272Z,16.88
2019-03-31T15:49:30.637Z,16.86
2019-03-31T15:52:04.050Z,16.64
2019-03-31T15:54:35.382Z,16.58
2019-03-31T15:57:06.716Z,16.54
2019-03-31T15:59:38.045Z,16.23
2019-03-31T16:02:09.425Z,16.28
2019-03-31T16:04:40.803Z,15.98
2019-03-31T16:07:12.228Z,15.85
2019-03-31T16:09:43.509Z,15.64
2019-03-31T16:12:14.883Z,15.51
2019-03-31T16:14:46.262Z,15.43
2019-03-31T16:17:17.641Z,15.31
2019-03-31T16:19:49.002Z,15.15
2019-03-31T16:22:20.356Z,15.00
2019-03-31T16:24:54.284Z,14.95
2019-03-31T16:27:25.627Z,14.88
2019-03-31T16:29:56.982Z,14.91
2019-03-31T16:32:28.249Z,14.73
2019-03-31T16:34:59.655Z,14.79
2019-03-31T16:37:31.040Z,14.54
2019-03-31T16:40:02.390Z,14.39
2019-03-31T16:42:33.785Z,14.29
2019-03-31T16:45:06.800Z,14.08
2019-03-31T16:47:38.157Z,13.90
2019-03-31T16:50:10.150Z,13.95
2019-03-31T16:52:40.786Z,13.96
2019-03-31T16:55:11.842Z,14.13
2019-03-31T16:57:43.372Z,14.15
2019-03-31T17:00:14.708Z,14.01
2019-03-31T17:02:46.000Z,14.05
2019-03-31T17:05:22.063Z,14.04
2019-03-31T17:07:50.424Z,14.10
2019-03-31T17:10:21.800Z,14.02
2019-03-31T17:12:53.146Z,13.87
2019-03-31T17:15:24.411Z,14.14
2019-03-31T17:17:55.840Z,13.82
2019-03-31T17:20:27.178Z,13.66
2019-03-31T17:22:58.541Z,13.76
2019-03-31T17:25:29.931Z,13.57
2019-03-31T17:28:01.283Z,13.59
2019-03-31T17:30:32.657Z,13.44
2019-03-31T17:33:04.016Z,13.22
2019-03-31T17:35:35.397Z,13.33
2019-03-31T17:38:06.818Z,13.45
2019-03-31T17:40:38.206Z,13.43
2019-03-31T17:43:09.552Z,13.34
2019-03-31T17:45:40.900Z,13.25
2019-03-31T17:48:12.244Z,12.92
2019-03-31T17:50:43.608Z,12.96
2019-03-31T17:53:14.888Z,12.75
2019-03-31T17:55:46.266Z,12.60
2019-03-31T17:58:17.654Z,12.64
2019-03-31T18:00:49.052Z,12.60
2019-03-31T18:03:20.453Z,12.53
2019-03-31T18:05:51.841Z,12.36
2019-03-31T18:08:23.231Z,12.24
2019-03-31T18:10:55.754Z,12.27
2019-03-31T18:13:27.138Z,12.29
2019-03-31T18:15:58.514Z,12.25
2019-03-31T18:18:29.921Z,12.15
2019-03-31T18:21:01.295Z,11.98
2019-03-31T18:23:32.636Z,12.01
2019-03-31T18:26:03.973Z,11.90
2019-03-31T18:28:35.329Z,11.71
2019-03-31T18:31:06.746Z,11.70
2019-03-31T18:33:38.114Z,11.59
2019-03-31T18:36:09.506Z,11.53
2019-03-31T18:38:40.858Z,11.67
2019-03-31T18:41:13.496Z,11.49
2019-03-31T18:43:51.637Z,11.56
2019-03-31T18:46:18.344Z,11.32
2019-03-31T18:48:49.825Z,11.29
2019-03-31T18:51:21.232Z,11.11
2019-03-31T18:54:10.245Z,11.07
2019-03-31T18:56:46.179Z,11.05
2019-03-31T18:59:24.858Z,11.11
2019-03-31T19:02:02.031Z,11.19
2019-03-31T19:04:35.003Z,11.03
2019-03-31T19:07:07.931Z,11.08
2019-03-31T19:09:46.657Z,11.11
2019-03-31T19:12:35.921Z,10.63
2019-03-31T19:15:11.664Z,10.84
2019-03-31T19:17:44.662Z,10.71
2019-03-31T19:20:26.466Z,10.64
2019-03-31T19:23:15.515Z,10.64
2019-03-31T19:26:04.545Z,10.63
2019-03-31T19:28:37.312Z,10.65
2019-03-31T19:31:26.711Z,10.55
2019-03-31T19:34:14.654Z,10.52
2019-03-31T19:36:50.293Z,10.49
2019-03-31T19:39:23.226Z,10.43
2019-03-31T19:42:05.205Z,10.40
2019-03-31T19:44:54.191Z,10.22
2019-03-31T19:47:33.035Z,10.18
2019-03-31T19:50:13.444Z,10.20
2019-03-31T19:52:49.106Z,10.27
2019-03-31T19:55:29.211Z,10.11
2019-03-31T19:58:08.377Z,10.15
2019-03-31T20:00:44.278Z,10.26
2019-03-31T20:03:20.240Z,10.21
2019-03-31T20:05:56.235Z,10.03
2019-03-31T20:08:44.624Z,10.07
2019-03-31T20:11:23.787Z,10.08
2019-03-31T20:14:05.807Z,10.13
2019-03-31T20:16:50.688Z,10.06
2019-03-31T20:19:39.907Z,10.11
2019-03-31T20:22:30.976Z,9.90
2019-03-31T20:25:06.861Z,9.91
2019-03-31T20:27:39.791Z,9.96
2019-03-31T20:30:15.510Z,9.88
2019-03-31T20:33:00.668Z,9.82
2019-03-31T20:35:49.774Z,9.97
2019-03-31T20:38:25.624Z,9.94
2019-03-31T20:41:04.693Z,10.01
2019-03-31T20:43:41.737Z,9.98
2019-03-31T20:46:13.085Z,9.91
2019-03-31T20:48:44.491Z,9.90
2019-03-31T20:51:15.833Z,9.90
2019-03-31T20:53:48.166Z,9.98
2019-03-31T20:56:19.559Z,9.86
2019-03-31T20:58:50.944Z,9.87
2019-03-31T21:01:22.323Z,9.86
2019-03-31T21:03:53.735Z,9.93
2019-03-31T21:06:25.081Z,10.04
2019-03-31T21:08:56.425Z,9.94
2019-03-31T21:11:27.765Z,9.89
2019-03-31T21:13:59.199Z,9.85
2019-03-31T21:16:30.564Z,9.77
2019-03-31T21:19:01.846Z,9.66
2019-03-31T21:21:33.142Z,9.61
2019-03-31T21:24:04.496Z,9.65
2019-03-31T21:26:35.851Z,9.63
2019-03-31T21:29:07.216Z,9.48
2019-03-31T21:31:38.599Z,9.72
2019-03-31T21:34:09.993Z,9.21
2019-03-31T21:36:41.352Z,9.16
2019-03-31T21:39:12.690Z,9.29
2019-03-31T21:41:44.001Z,9.30
2019-03-31T21:44:15.295Z,9.03
2019-03-31T21:46:46.614Z,8.97
2019-03-31T21:49:17.970Z,9.20
2019-03-31T21:51:49.295Z,9.05
2019-03-31T21:54:20.644Z,8.81
2019-03-31T21:56:51.929Z,8.72
2019-03-31T21:59:23.238Z,8.65
2019-03-31T22:01:54.576Z,8.73
2019-03-31T22:04:25.890Z,8.70
2019-03-31T22:06:57.337Z,8.64
2019-03-31T22:09:28.739Z,8.75
2019-03-31T22:12:00.080Z,8.63
2019-03-31T22:14:31.453Z,8.47
2019-03-31T22:17:02.791Z,8.62
2019-03-31T22:19:34.127Z,8.60
2019-03-31T22:22:05.462Z,8.79
2019-03-31T22:24:36.805Z,8.81
2019-03-31T22:27:08.148Z,9.03
2019-03-31T22:29:39.545Z,9.07
2019-03-31T22:32:10.925Z,9.20
2019-03-31T22:34:42.271Z,9.40
2019-03-31T22:37:13.550Z,9.49
2019-03-31T22:39:44.885Z,9.67
2019-03-31T22:42:17.541Z,9.51
2019-03-31T22:44:48.941Z,9.55
2019-03-31T22:47:20.196Z,9.51
2019-03-31T22:49:51.518Z,9.50
2019-03-31T22:52:22.782Z,9.46
2019-03-31T22:54:54.079Z,9.49
2019-03-31T22:57:25.512Z,9.50
2019-03-31T22:59:56.759Z,9.34
2019-03-31T23:02:28.107Z,9.29
2019-03-31T23:04:59.438Z,9.31
2019-03-31T23:07:30.769Z,9.21
2019-03-31T23:10:02.149Z,9.18
2019-03-31T23:12:33.477Z,9.15
2019-03-31T23:15:06.714Z,9.22
2019-03-31T23:17:38.127Z,9.15
2019-03-31T23:20:09.483Z,9.05
2019-03-31T23:22:40.833Z,9.12
2019-03-31T23:25:12.866Z,9.17
2019-03-31T23:27:44.142Z,9.13
2019-03-31T23:30:15.504Z,9.06
2019-03-31T23:32:46.836Z,8.98
2019-03-31T23:35:18.185Z,8.87
2019-03-31T23:37:49.449Z,8.89
2019-03-31T23:40:20.807Z,8.73
2019-03-31T23:42:52.098Z,8.75
2019-03-31T23:45:23.453Z,8.81
2019-03-31T23:47:56.137Z,8.73
2019-03-31T23:50:27.478Z,8.70
2019-03-31T23:52:58.757Z,8.81
2019-03-31T23:55:30.098Z,8.88
2019-03-31T23:58:01.437Z,8.80
